Time;durP1;ratioP1;P1;durP2;ratioP2;P2;SDS_P1;SDS_P2;PMS_P1;PMS_P2;Temp;Humidity;BMP_temperature;BMP_pressure;BME280_temperature;BME280_humidity;BME280_pressure;Samples;Min_cycle;Max_cycle;Signal;HPM_P1;HPM_P2
2021/06/05 00:01:18;;;;;;;;;;;20.10;64.90;;;;;;5077915;22;3808;-73
2021/06/05 00:03:43;;;;;;;;;;;20.10;64.90;;;;;;5027745;28;1693;-74
2021/06/05 00:06:10;;;;;;;;;;;20.10;64.90;;;;;;5046841;28;1119;-74
2021/06/05 00:08:35;;;;;;;;;;;20.10;64.90;;;;;;5014650;28;1954;-74
2021/06/05 00:11:02;;;;;;;;;;;20.10;64.90;;;;;;5030442;28;1294;-74
2021/06/05 00:13:28;;;;;;;;;;;20.10;64.90;;;;;;5034310;28;1080;-74
2021/06/05 00:15:54;;;;;;;;;;;20.10;64.90;;;;;;5021175;28;1261;-74
2021/06/05 00:18:19;;;;;;;;;;;20.10;64.90;;;;;;5039233;28;1095;-74
2021/06/05 00:20:45;;;;;;;;;;;20.20;65.00;;;;;;5038928;28;1167;-74
2021/06/05 00:23:12;;;;;;;;;;;20.10;64.90;;;;;;5033960;28;1294;-74
2021/06/05 00:25:37;;;;;;;;;;;20.10;64.90;;;;;;5034029;28;1167;-74
2021/06/05 00:28:03;;;;;;;;;;;20.10;64.90;;;;;;5035272;28;1918;-74
2021/06/05 00:30:28;;;;;;;;;;;20.10;64.90;;;;;;5033855;28;1159;-74
2021/06/05 00:32:54;;;;;;;;;;;20.10;64.90;;;;;;5033197;28;1241;-74
2021/06/05 00:35:19;;;;;;;;;;;20.10;64.90;;;;;;5033771;28;1108;-74
2021/06/05 00:37:45;;;;;;;;;;;20.10;64.90;;;;;;5035137;28;1075;-74
2021/06/05 00:40:11;;;;;;;;;;;20.10;64.90;;;;;;5034753;28;1095;-74
2021/06/05 00:42:36;;;;;;;;;;;20.10;64.90;;;;;;5033503;28;1291;-74
2021/06/05 00:45:03;;;;;;;;;;;20.10;64.90;;;;;;5034262;28;1116;-74
2021/06/05 00:47:28;;;;;;;;;;;20.10;64.90;;;;;;5034623;28;1290;-74
2021/06/05 00:49:55;;;;;;;;;;;20.10;64.90;;;;;;5033588;28;1906;-74
2021/06/05 00:52:21;;;;;;;;;;;20.10;64.90;;;;;;5033386;28;1215;-74
2021/06/05 00:54:46;;;;;;;;;;;20.10;64.90;;;;;;5032856;28;1077;-74
2021/06/05 00:57:12;;;;;;;;;;;20.10;64.90;;;;;;5034468;28;1075;-74
2021/06/05 00:59:38;;;;;;;;;;;20.10;65.00;;;;;;5033580;28;1307;-74
2021/06/05 01:02:03;;;;;;;;;;;20.10;64.90;;;;;;5034769;28;1294;-74
2021/06/05 01:04:29;;;;;;;;;;;20.10;65.00;;;;;;5034574;28;1122;-74
2021/06/05 01:07:14;;;;;;;;;;;20.10;64.90;;;;;;5033367;28;1413;-74
2021/06/05 01:09:57;;;;;;;;;;;20.10;65.00;;;;;;5033268;28;1963;-74
2021/06/05 01:12:25;;;;;;;;;;;20.10;65.00;;;;;;5033151;28;1398;-74
2021/06/05 01:14:53;;;;;;;;;;;20.10;65.00;;;;;;5032755;28;1198;-74
2021/06/05 01:17:19;;;;;;;;;;;20.10;65.00;;;;;;5021457;28;1246;-74
2021/06/05 01:19:50;;;;;;;;;;;20.10;65.00;;;;;;5032960;28;1072;-74
2021/06/05 01:22:33;;;;;;;;;;;20.10;65.00;;;;;;5028041;28;1280;-74
2021/06/05 01:25:18;;;;;;;;;;;20.10;65.00;;;;;;5032162;28;1088;-74
2021/06/05 01:27:44;;;;;;;;;;;20.10;65.00;;;;;;5033989;28;1910;-74
2021/06/05 01:30:15;;;;;;;;;;;20.10;65.00;;;;;;5033600;28;1059;-74
2021/06/05 01:32:41;;;;;;;;;;;20.10;65.00;;;;;;5032492;28;1186;-74
2021/06/05 01:35:06;;;;;;;;;;;20.10;65.00;;;;;;5002503;28;1263;-74
2021/06/05 01:37:33;;;;;;;;;;;20.10;65.00;;;;;;5032782;28;1115;-74
2021/06/05 01:39:59;;;;;;;;;;;20.10;65.00;;;;;;5033618;28;999;-74
2021/06/05 01:42:29;;;;;;;;;;;20.10;65.00;;;;;;5032314;28;1322;-74
2021/06/05 01:44:55;;;;;;;;;;;20.10;65.00;;;;;;5031795;28;1221;-74
2021/06/05 01:47:20;;;;;;;;;;;20.10;65.00;;;;;;5032791;28;1040;-74
2021/06/05 01:49:46;;;;;;;;;;;20.10;65.00;;;;;;5032613;28;1910;-74
2021/06/05 01:52:12;;;;;;;;;;;20.10;65.00;;;;;;5032252;28;1227;-74
2021/06/05 01:54:39;;;;;;;;;;;20.10;65.00;;;;;;5032118;28;996;-74
2021/06/05 01:57:05;;;;;;;;;;;20.10;65.00;;;;;;5031859;28;1123;-74
2021/06/05 01:59:31;;;;;;;;;;;20.10;65.00;;;;;;5031660;28;1135;-74
2021/06/05 02:01:56;;;;;;;;;;;20.10;65.00;;;;;;5033493;28;1298;-74
2021/06/05 02:04:22;;;;;;;;;;;20.10;65.10;;;;;;5032626;28;1471;-74
2021/06/05 02:06:47;;;;;;;;;;;20.10;65.00;;;;;;5032264;28;1139;-74
2021/06/05 02:09:13;;;;;;;;;;;20.10;65.00;;;;;;5031825;28;1982;-74
2021/06/05 02:11:40;;;;;;;;;;;20.10;65.10;;;;;;5032047;28;1275;-74
2021/06/05 02:14:07;;;;;;;;;;;20.10;65.00;;;;;;5012255;28;1339;-74
2021/06/05 02:16:35;;;;;;;;;;;20.10;65.00;;;;;;5032381;28;1162;-74
2021/06/05 02:19:01;;;;;;;;;;;20.10;65.00;;;;;;5036885;28;1111;-74
2021/06/05 02:21:27;;;;;;;;;;;20.10;65.00;;;;;;5037401;28;1366;-74
2021/06/05 02:24:04;;;;;;;;;;;20.10;65.10;;;;;;5031129;28;1100;-74
2021/06/05 02:26:30;;;;;;;;;;;20.10;65.10;;;;;;5031332;28;1088;-74
2021/06/05 02:28:56;;;;;;;;;;;20.10;65.00;;;;;;5031592;28;1957;-74
2021/06/05 02:31:22;;;;;;;;;;;20.10;65.10;;;;;;5031288;28;1354;-74
2021/06/05 02:33:47;;;;;;;;;;;20.10;65.10;;;;;;5031204;28;1127;-74
2021/06/05 02:36:13;;;;;;;;;;;20.10;65.10;;;;;;5031503;28;1111;-74
2021/06/05 02:38:42;;;;;;;;;;;20.10;65.00;;;;;;5014236;28;1201;-74
2021/06/05 02:41:08;;;;;;;;;;;20.10;65.10;;;;;;5031330;28;1226;-74
2021/06/05 02:43:33;;;;;;;;;;;20.10;65.10;;;;;;5031152;28;1084;-74
2021/06/05 02:46:00;;;;;;;;;;;20.10;65.10;;;;;;5032381;28;1234;-74
2021/06/05 02:48:47;;;;;;;;;;;20.10;65.10;;;;;;5031747;28;1961;-74
2021/06/05 02:51:12;;;;;;;;;;;20.10;65.10;;;;;;5030550;28;1278;-74
2021/06/05 02:53:38;;;;;;;;;;;20.10;65.10;;;;;;4994563;28;1239;-74
2021/06/05 02:56:03;;;;;;;;;;;20.10;65.10;;;;;;5024505;28;1265;-74
2021/06/05 02:58:29;;;;;;;;;;;20.10;65.10;;;;;;5032312;28;1211;-74
2021/06/05 03:00:54;;;;;;;;;;;20.10;65.10;;;;;;5031154;28;1163;-74
2021/06/05 03:03:20;;;;;;;;;;;20.10;65.10;;;;;;5030564;28;1255;-74
2021/06/05 03:05:45;;;;;;;;;;;20.10;65.10;;;;;;5031165;28;1183;-74
2021/06/05 03:08:15;;;;;;;;;;;20.10;65.10;;;;;;5031455;28;1918;-74
2021/06/05 03:10:40;;;;;;;;;;;20.10;65.10;;;;;;5030751;28;1195;-73
2021/06/05 03:13:06;;;;;;;;;;;20.10;65.10;;;;;;5030413;28;1210;-74
2021/06/05 03:15:32;;;;;;;;;;;20.10;65.10;;;;;;5030835;28;1166;-74
2021/06/05 03:17:57;;;;;;;;;;;20.10;65.10;;;;;;5036433;28;1199;-74
2021/06/05 03:20:24;;;;;;;;;;;20.10;65.10;;;;;;5037299;28;1153;-74
2021/06/05 03:22:49;;;;;;;;;;;20.10;65.10;;;;;;5030513;28;1299;-74
2021/06/05 03:25:15;;;;;;;;;;;20.10;65.10;;;;;;5031028;28;1060;-74
2021/06/05 03:27:40;;;;;;;;;;;20.10;65.10;;;;;;5032346;28;1122;-74
2021/06/05 03:30:06;;;;;;;;;;;20.10;65.10;;;;;;5032122;28;1962;-74
2021/06/05 03:32:32;;;;;;;;;;;20.10;65.10;;;;;;5030748;28;1305;-74
2021/06/05 03:34:57;;;;;;;;;;;20.10;65.10;;;;;;5031307;28;1135;-73
2021/06/05 03:37:22;;;;;;;;;;;20.10;65.10;;;;;;5030646;28;1087;-73
2021/06/05 03:39:48;;;;;;;;;;;20.10;65.10;;;;;;5032146;28;1036;-74
2021/06/05 03:42:13;;;;;;;;;;;20.10;65.10;;;;;;5031276;28;1270;-74
2021/06/05 03:44:39;;;;;;;;;;;20.10;65.20;;;;;;5030475;28;1056;-73
2021/06/05 03:47:04;;;;;;;;;;;20.10;65.10;;;;;;5032444;28;1178;-74
2021/06/05 03:49:30;;;;;;;;;;;20.10;65.10;;;;;;5030731;28;1894;-74
2021/06/05 03:51:55;;;;;;;;;;;20.10;65.10;;;;;;5031880;28;1267;-74
2021/06/05 03:54:21;;;;;;;;;;;20.10;65.10;;;;;;5031183;28;1119;-74
2021/06/05 03:56:46;;;;;;;;;;;20.10;65.10;;;;;;5031955;28;1126;-74
2021/06/05 03:59:12;;;;;;;;;;;20.10;65.20;;;;;;5030682;28;1143;-74
2021/06/05 04:01:37;;;;;;;;;;;20.10;65.10;;;;;;5031614;28;1219;-74
2021/06/05 04:04:03;;;;;;;;;;;20.10;66.00;;;;;;5010220;28;1195;-73
2021/06/05 04:06:28;;;;;;;;;;;20.10;65.10;;;;;;5029528;28;1004;-73
2021/06/05 04:08:54;;;;;;;;;;;20.10;65.10;;;;;;5031541;28;1957;-74
2021/06/05 04:11:19;;;;;;;;;;;20.10;65.20;;;;;;5030621;28;1343;-74
2021/06/05 04:13:48;;;;;;;;;;;20.10;65.10;;;;;;5030180;28;1147;-74
2021/06/05 04:16:14;;;;;;;;;;;20.10;65.10;;;;;;5018339;28;1265;-74
2021/06/05 04:18:39;;;;;;;;;;;20.10;65.20;;;;;;5035527;28;1194;-74
2021/06/05 04:21:06;;;;;;;;;;;20.10;65.10;;;;;;5039220;28;1389;-73
2021/06/05 04:23:31;;;;;;;;;;;20.10;65.10;;;;;;5033764;28;1064;-74
2021/06/05 04:25:57;;;;;;;;;;;20.10;65.10;;;;;;5033892;28;1119;-74
2021/06/05 04:28:22;;;;;;;;;;;20.10;65.10;;;;;;5034111;28;1961;-73
2021/06/05 04:30:48;;;;;;;;;;;20.10;65.20;;;;;;5033478;28;1287;-74
2021/06/05 04:33:14;;;;;;;;;;;20.10;65.20;;;;;;5033412;28;1290;-74
2021/06/05 04:35:39;;;;;;;;;;;20.10;65.20;;;;;;5033297;28;1112;-74
2021/06/05 04:38:05;;;;;;;;;;;20.10;65.20;;;;;;5033850;28;1084;-74
2021/06/05 04:40:30;;;;;;;;;;;20.00;65.10;;;;;;5035201;28;1174;-74
2021/06/05 04:42:56;;;;;;;;;;;20.10;65.20;;;;;;5033468;28;1189;-74
2021/06/05 04:45:21;;;;;;;;;;;20.10;65.20;;;;;;5033499;28;1285;-74
2021/06/05 04:47:47;;;;;;;;;;;20.10;65.20;;;;;;5033431;28;1190;-74
2021/06/05 04:50:13;;;;;;;;;;;20.10;65.20;;;;;;5034332;28;1910;-74
2021/06/05 04:52:38;;;;;;;;;;;20.10;65.20;;;;;;5033668;28;1212;-74
2021/06/05 04:55:04;;;;;;;;;;;20.10;65.20;;;;;;5032930;28;942;-74
2021/06/05 04:57:30;;;;;;;;;;;20.00;65.10;;;;;;5032985;28;1165;-74
2021/06/05 04:59:55;;;;;;;;;;;20.10;65.20;;;;;;5033437;28;1056;-74
2021/06/05 05:02:20;;;;;;;;;;;20.10;65.20;;;;;;5034180;28;1268;-74
2021/06/05 05:04:46;;;;;;;;;;;20.10;65.20;;;;;;5033234;28;1204;-74
2021/06/05 05:07:12;;;;;;;;;;;20.10;65.20;;;;;;5034561;28;1134;-74
2021/06/05 05:09:37;;;;;;;;;;;20.00;65.10;;;;;;5034331;28;1902;-74
2021/06/05 05:12:03;;;;;;;;;;;20.10;65.20;;;;;;5033416;28;1267;-74
2021/06/05 05:14:29;;;;;;;;;;;20.10;65.20;;;;;;5032426;28;1124;-73
2021/06/05 05:16:54;;;;;;;;;;;20.10;65.20;;;;;;5037316;28;1224;-74
2021/06/05 05:19:19;;;;;;;;;;;20.10;65.20;;;;;;5034871;28;1126;-74
2021/06/05 05:21:45;;;;;;;;;;;20.10;65.20;;;;;;5039804;28;1354;-74
2021/06/05 05:24:10;;;;;;;;;;;20.00;65.10;;;;;;5033467;28;1103;-74
2021/06/05 05:26:36;;;;;;;;;;;20.10;65.20;;;;;;5033127;28;1060;-74
2021/06/05 05:29:01;;;;;;;;;;;20.00;65.10;;;;;;5032546;28;1977;-74
2021/06/05 05:31:27;;;;;;;;;;;20.00;65.20;;;;;;5032547;28;1371;-74
2021/06/05 05:33:52;;;;;;;;;;;20.00;65.20;;;;;;5032183;28;1076;-74
2021/06/05 05:36:25;;;;;;;;;;;20.00;65.20;;;;;;5032971;28;1151;-74
2021/06/05 05:38:51;;;;;;;;;;;20.00;65.20;;;;;;5033559;28;1068;-74
2021/06/05 05:41:17;;;;;;;;;;;20.00;65.20;;;;;;5032722;28;1268;-74
2021/06/05 05:43:42;;;;;;;;;;;20.00;65.20;;;;;;5031684;28;1084;-74
2021/06/05 05:46:08;;;;;;;;;;;20.10;65.20;;;;;;5033953;28;1060;-74
2021/06/05 05:48:33;;;;;;;;;;;20.00;65.20;;;;;;5032074;28;1910;-74
2021/06/05 05:50:59;;;;;;;;;;;20.10;65.20;;;;;;5032585;28;1278;-73
2021/06/05 05:53:24;;;;;;;;;;;20.00;65.20;;;;;;5031240;28;1123;-74
2021/06/05 05:55:50;;;;;;;;;;;20.00;65.20;;;;;;5033703;28;1071;-73
2021/06/05 05:58:16;;;;;;;;;;;20.00;65.20;;;;;;5032357;28;1195;-74
2021/06/05 06:00:42;;;;;;;;;;;20.00;65.20;;;;;;5032079;28;1211;-73
2021/06/05 06:03:08;;;;;;;;;;;20.00;65.20;;;;;;5058029;22;2101;-67
2021/06/05 06:05:34;;;;;;;;;;;20.00;65.20;;;;;;5047233;28;1094;-66
2021/06/05 06:07:59;;;;;;;;;;;20.00;65.20;;;;;;5052184;28;1973;-65
2021/06/05 06:10:24;;;;;;;;;;;20.10;65.30;;;;;;5053166;28;1067;-65
2021/06/05 06:12:50;;;;;;;;;;;20.00;65.20;;;;;;5052552;28;1268;-66
2021/06/05 06:15:17;;;;;;;;;;;20.10;65.30;;;;;;5041914;28;1220;-65
2021/06/05 06:17:43;;;;;;;;;;;20.00;65.20;;;;;;5049600;28;1163;-66
2021/06/05 06:20:09;;;;;;;;;;;20.00;65.20;;;;;;5051807;28;1383;-65
2021/06/05 06:22:36;;;;;;;;;;;20.00;65.20;;;;;;5051694;28;1331;-66
2021/06/05 06:25:02;;;;;;;;;;;20.10;65.30;;;;;;5051995;28;1110;-66
2021/06/05 06:27:30;;;;;;;;;;;20.00;65.20;;;;;;5051629;28;1186;-66
2021/06/05 06:29:55;;;;;;;;;;;20.00;65.20;;;;;;5051509;28;1902;-65
2021/06/05 06:32:21;;;;;;;;;;;20.00;64.90;;;;;;5052625;28;1349;-65
2021/06/05 06:34:47;;;;;;;;;;;20.00;64.60;;;;;;5052522;28;1185;-66
2021/06/05 06:37:12;;;;;;;;;;;20.10;64.10;;;;;;5052961;28;1051;-65
2021/06/05 06:39:38;;;;;;;;;;;20.10;64.20;;;;;;5051201;28;1131;-65
2021/06/05 06:42:03;;;;;;;;;;;20.10;64.40;;;;;;5052847;28;1245;-65
2021/06/05 06:44:29;;;;;;;;;;;20.10;64.70;;;;;;5050670;28;1076;-64
2021/06/05 06:46:54;;;;;;;;;;;20.10;64.70;;;;;;5034814;28;1837;-63
2021/06/05 06:49:20;;;;;;;;;;;20.10;64.90;;;;;;5057022;28;1965;-65
2021/06/05 06:51:45;;;;;;;;;;;20.10;64.90;;;;;;5058171;28;1262;-63
2021/06/05 06:54:11;;;;;;;;;;;20.10;64.90;;;;;;5049533;28;1063;-63
2021/06/05 06:56:36;;;;;;;;;;;20.10;64.90;;;;;;5051174;28;1158;-63
2021/06/05 06:59:02;;;;;;;;;;;20.00;64.90;;;;;;5051803;28;1141;-64
2021/06/05 07:01:27;;;;;;;;;;;20.00;64.90;;;;;;5051943;28;1335;-64
2021/06/05 07:03:53;;;;;;;;;;;20.00;64.90;;;;;;5052074;28;1162;-64
2021/06/05 07:06:18;;;;;;;;;;;20.00;64.90;;;;;;5052265;28;1178;-66
2021/06/05 07:08:44;;;;;;;;;;;20.00;64.90;;;;;;5047294;28;1914;-64
2021/06/05 07:11:13;;;;;;;;;;;20.10;64.90;;;;;;5043115;28;1287;-65
2021/06/05 07:13:39;;;;;;;;;;;20.10;64.90;;;;;;5043440;28;1199;-65
2021/06/05 07:16:04;;;;;;;;;;;20.00;64.90;;;;;;5043030;28;1185;-65
2021/06/05 07:18:30;;;;;;;;;;;20.10;65.80;;;;;;5043509;28;1456;-64
2021/06/05 07:20:56;;;;;;;;;;;20.10;66.10;;;;;;5047301;28;1509;-66
2021/06/05 07:23:22;;;;;;;;;;;20.10;66.00;;;;;;5042877;28;1429;-65
2021/06/05 07:25:48;;;;;;;;;;;20.20;66.30;;;;;;5044274;28;1348;-64
2021/06/05 07:28:20;;;;;;;;;;;20.20;66.30;;;;;;5041227;28;1902;-65
2021/06/05 07:30:45;;;;;;;;;;;20.20;66.20;;;;;;5037682;28;1172;-64
2021/06/05 07:33:11;;;;;;;;;;;20.20;66.30;;;;;;5051576;28;1604;-64
2021/06/05 07:35:36;;;;;;;;;;;20.20;66.30;;;;;;5051449;28;1073;-65
2021/06/05 07:38:01;;;;;;;;;;;20.30;66.40;;;;;;5051138;28;1641;-64
2021/06/05 07:40:27;;;;;;;;;;;20.30;66.50;;;;;;5050926;28;1652;-64
2021/06/05 07:42:52;;;;;;;;;;;20.30;66.50;;;;;;5051277;28;1382;-64
2021/06/05 07:45:18;;;;;;;;;;;20.30;66.60;;;;;;5050675;28;1406;-64
2021/06/05 07:47:43;;;;;;;;;;;20.30;66.70;;;;;;5052062;28;1222;-64
2021/06/05 07:50:09;;;;;;;;;;;20.30;66.90;;;;;;5051821;28;1951;-64
2021/06/05 07:52:34;;;;;;;;;;;20.30;67.30;;;;;;5051697;28;1659;-64
2021/06/05 07:55:03;;;;;;;;;;;20.30;67.40;;;;;;5051722;28;1556;-64
2021/06/05 07:57:29;;;;;;;;;;;20.30;67.60;;;;;;5055925;28;1348;-64
2021/06/05 07:59:54;;;;;;;;;;;20.30;67.60;;;;;;5055719;28;1371;-64
2021/06/05 08:02:20;;;;;;;;;;;20.30;67.90;;;;;;5055673;28;1338;-64
2021/06/05 08:04:45;;;;;;;;;;;20.30;68.20;;;;;;5055058;28;1685;-64
2021/06/05 08:07:10;;;;;;;;;;;20.30;68.50;;;;;;5055916;28;1449;-64
2021/06/05 08:09:36;;;;;;;;;;;20.30;68.50;;;;;;5055645;28;1930;-64
2021/06/05 08:12:05;;;;;;;;;;;20.40;68.70;;;;;;5055337;28;1629;-64
2021/06/05 08:14:31;;;;;;;;;;;20.40;68.70;;;;;;5048763;28;1448;-64
2021/06/05 08:16:56;;;;;;;;;;;20.40;68.90;;;;;;5047259;28;1639;-64
2021/06/05 08:19:22;;;;;;;;;;;20.30;68.90;;;;;;5054113;28;1477;-64
2021/06/05 08:21:47;;;;;;;;;;;20.40;69.10;;;;;;5055223;28;1395;-65
2021/06/05 08:24:13;;;;;;;;;;;20.40;69.30;;;;;;5055200;28;1372;-64
2021/06/05 08:26:39;;;;;;;;;;;20.40;69.30;;;;;;5055481;28;1387;-65
2021/06/05 08:29:04;;;;;;;;;;;20.40;69.50;;;;;;5055243;28;1965;-65
2021/06/05 08:31:30;;;;;;;;;;;20.40;70.00;;;;;;5054317;28;1685;-66
2021/06/05 08:33:55;;;;;;;;;;;20.40;69.80;;;;;;5054506;28;1620;-65
2021/06/05 08:36:23;;;;;;;;;;;20.40;69.60;;;;;;5055145;28;1766;-64
2021/06/05 08:38:48;;;;;;;;;;;20.40;69.50;;;;;;5054876;28;1637;-65
2021/06/05 08:41:18;;;;;;;;;;;20.50;69.30;;;;;;5055103;28;1380;-65
2021/06/05 08:43:45;;;;;;;;;;;20.50;69.20;;;;;;5053101;28;1603;-64
2021/06/05 08:46:11;;;;;;;;;;;20.50;69.00;;;;;;5055060;28;1650;-65
2021/06/05 08:48:36;;;;;;;;;;;20.50;68.90;;;;;;5055045;28;1963;-65
2021/06/05 08:51:21;;;;;;;;;;;20.50;68.90;;;;;;5055048;28;1640;-64
2021/06/05 08:53:46;;;;;;;;;;;20.50;68.80;;;;;;5057067;28;1509;-64
2021/06/05 08:56:16;;;;;;;;;;;20.50;68.80;;;;;;5053608;28;1259;-64
2021/06/05 08:58:45;;;;;;;;;;;20.50;68.80;;;;;;5053599;28;1623;-64
2021/06/05 09:01:12;;;;;;;;;;;20.50;68.90;;;;;;5063952;28;1329;-65
2021/06/05 09:03:38;;;;;;;;;;;20.50;68.80;;;;;;5053261;28;1355;-65
2021/06/05 09:06:07;;;;;;;;;;;20.50;68.90;;;;;;5053151;28;1366;-65
2021/06/05 09:08:33;;;;;;;;;;;20.50;68.80;;;;;;5053628;28;1914;-65
2021/06/05 09:11:00;;;;;;;;;;;20.50;68.70;;;;;;5053379;28;1451;-64
2021/06/05 09:13:25;;;;;;;;;;;20.50;68.80;;;;;;5053850;28;1474;-65
2021/06/05 09:16:11;;;;;;;;;;;20.50;68.90;;;;;;5054291;28;1535;-64
2021/06/05 09:18:52;;;;;;;;;;;20.50;69.00;;;;;;5054517;28;1389;-64
2021/06/05 09:21:27;;;;;;;;;;;20.50;69.00;;;;;;5054288;28;1379;-64
2021/06/05 09:23:53;;;;;;;;;;;20.50;69.10;;;;;;5052389;28;1528;-64
2021/06/05 09:26:23;;;;;;;;;;;20.50;69.30;;;;;;5053339;28;1617;-64
2021/06/05 09:28:49;;;;;;;;;;;20.50;69.40;;;;;;5052785;28;1969;-64
2021/06/05 09:31:16;;;;;;;;;;;20.50;69.60;;;;;;5052962;28;1580;-65
2021/06/05 09:33:41;;;;;;;;;;;20.50;69.70;;;;;;5053594;28;1673;-65
2021/06/05 09:36:14;;;;;;;;;;;20.50;70.00;;;;;;5054365;28;1272;-64
2021/06/05 09:38:43;;;;;;;;;;;20.50;69.90;;;;;;5053736;28;1376;-64
2021/06/05 09:41:21;;;;;;;;;;;20.50;70.00;;;;;;5052802;28;1670;-64
2021/06/05 09:43:48;;;;;;;;;;;20.50;70.30;;;;;;5053225;28;1401;-67
2021/06/05 09:46:23;;;;;;;;;;;20.50;70.60;;;;;;5052948;28;1599;-65
2021/06/05 09:48:49;;;;;;;;;;;20.50;70.30;;;;;;5053661;28;1898;-65
2021/06/05 09:51:31;;;;;;;;;;;20.60;70.60;;;;;;5053607;28;1351;-64
2021/06/05 09:53:58;;;;;;;;;;;20.60;70.80;;;;;;5052862;28;1356;-67
2021/06/05 09:56:26;;;;;;;;;;;20.50;70.70;;;;;;5052646;28;1673;-65
2021/06/05 09:59:00;;;;;;;;;;;20.60;70.70;;;;;;5052013;28;1392;-65
2021/06/05 10:01:26;;;;;;;;;;;20.50;70.40;;;;;;5053741;28;1712;-65
2021/06/05 10:04:07;;;;;;;;;;;20.60;70.50;;;;;;5054351;28;1586;-65
2021/06/05 10:06:53;;;;;;;;;;;20.60;70.30;;;;;;5058467;28;1619;-65
2021/06/05 10:09:24;;;;;;;;;;;20.60;70.30;;;;;;5062017;28;1895;-65
2021/06/05 10:11:53;;;;;;;;;;;20.50;70.20;;;;;;5053155;28;1275;-64
2021/06/05 10:14:39;;;;;;;;;;;20.60;70.30;;;;;;5051469;28;1520;-65
2021/06/05 10:17:09;;;;;;;;;;;20.50;70.10;;;;;;5038940;28;1385;-66
2021/06/05 10:19:39;;;;;;;;;;;20.50;70.00;;;;;;5051374;28;1762;-65
2021/06/05 10:22:05;;;;;;;;;;;20.60;70.00;;;;;;5051737;28;1539;-65
2021/06/05 10:24:39;;;;;;;;;;;20.60;70.10;;;;;;5050917;28;1610;-66
2021/06/05 10:27:09;;;;;;;;;;;20.60;70.10;;;;;;5052075;28;1540;-65
2021/06/05 10:29:39;;;;;;;;;;;20.60;70.00;;;;;;5051732;28;1906;-65
2021/06/05 10:32:05;;;;;;;;;;;20.60;69.60;;;;;;5034739;28;1683;-64
2021/06/05 10:34:32;;;;;;;;;;;20.60;69.30;;;;;;5054021;28;1873;-65
2021/06/05 10:36:58;;;;;;;;;;;20.60;69.20;;;;;;5052938;28;1189;-65
2021/06/05 10:39:26;;;;;;;;;;;20.60;69.10;;;;;;5052797;28;803;-67
2021/06/05 10:41:56;;;;;;;;;;;20.60;69.00;;;;;;5051801;28;1356;-65
2021/06/05 10:44:23;;;;;;;;;;;20.60;69.00;;;;;;5034081;28;1573;-65
2021/06/05 10:47:00;;;;;;;;;;;20.70;69.20;;;;;;5052930;28;1422;-65
2021/06/05 10:49:42;;;;;;;;;;;20.60;69.50;;;;;;5052845;28;1902;-65
2021/06/05 10:52:07;;;;;;;;;;;20.60;69.50;;;;;;5051367;28;1290;-65
2021/06/05 10:54:33;;;;;;;;;;;20.60;69.50;;;;;;5051967;28;1539;-65
2021/06/05 10:57:00;;;;;;;;;;;20.70;69.40;;;;;;5051541;28;1547;-65
2021/06/05 10:59:44;;;;;;;;;;;20.60;69.40;;;;;;5050961;28;1468;-66
2021/06/05 11:02:09;;;;;;;;;;;20.60;69.40;;;;;;5052029;28;1243;-67
2021/06/05 11:04:39;;;;;;;;;;;20.60;69.40;;;;;;5051856;28;1440;-65
2021/06/05 11:07:05;;;;;;;;;;;20.60;69.50;;;;;;5051178;28;1598;-65
2021/06/05 11:09:30;;;;;;;;;;;20.60;69.50;;;;;;5052121;28;1914;-65
2021/06/05 11:12:00;;;;;;;;;;;20.60;69.50;;;;;;5052220;28;1604;-67
2021/06/05 11:14:35;;;;;;;;;;;20.60;69.40;;;;;;5046252;28;1687;-67
2021/06/05 11:17:01;;;;;;;;;;;20.60;69.40;;;;;;5044452;28;1387;-65
2021/06/05 11:19:32;;;;;;;;;;;20.60;69.70;;;;;;5052038;28;1880;-65
2021/06/05 11:22:01;;;;;;;;;;;20.60;69.70;;;;;;5050769;28;1494;-65
2021/06/05 11:24:27;;;;;;;;;;;20.60;69.70;;;;;;5050548;28;1712;-65
2021/06/05 11:26:53;;;;;;;;;;;20.60;69.70;;;;;;5051874;28;1441;-66
2021/06/05 11:29:18;;;;;;;;;;;20.60;69.70;;;;;;5052353;28;1968;-67
2021/06/05 11:31:50;;;;;;;;;;;20.60;69.60;;;;;;5055484;28;1410;-65
2021/06/05 11:34:34;;;;;;;;;;;20.60;69.60;;;;;;5042781;28;1256;-65
2021/06/05 11:36:59;;;;;;;;;;;20.60;69.60;;;;;;5056475;28;1677;-65
2021/06/05 11:39:24;;;;;;;;;;;20.60;69.60;;;;;;5055014;28;1357;-65
2021/06/05 11:41:52;;;;;;;;;;;20.60;69.50;;;;;;5056007;28;1357;-65
2021/06/05 11:44:25;;;;;;;;;;;20.60;69.50;;;;;;5054651;28;1361;-66
2021/06/05 11:46:51;;;;;;;;;;;20.60;69.60;;;;;;5056145;28;1359;-65
2021/06/05 11:49:40;;;;;;;;;;;20.60;69.50;;;;;;5055881;28;1910;-65
2021/06/05 11:52:27;;;;;;;;;;;20.60;69.50;;;;;;5055948;28;1264;-65
2021/06/05 11:54:55;;;;;;;;;;;20.60;69.50;;;;;;5054909;28;1598;-67
2021/06/05 11:57:25;;;;;;;;;;;20.60;69.50;;;;;;5054596;28;1656;-65
2021/06/05 11:59:51;;;;;;;;;;;20.60;69.60;;;;;;5054617;28;1429;-65
2021/06/05 12:02:22;;;;;;;;;;;20.60;69.60;;;;;;5073295;22;1899;-72
2021/06/05 12:04:48;;;;;;;;;;;20.60;69.70;;;;;;5068662;28;980;-72
2021/06/05 12:07:24;;;;;;;;;;;20.60;68.80;;;;;;5053045;28;2326;-72
2021/06/05 12:09:55;;;;;;;;;;;20.60;67.70;;;;;;5033342;28;1977;-72
2021/06/05 12:12:21;;;;;;;;;;;20.70;67.20;;;;;;5048346;28;1393;-73
2021/06/05 12:17:24;;;;;;;;;;;20.80;65.10;;;;;;5054667;28;1087;-73
2021/06/05 12:19:49;;;;;;;;;;;20.80;64.20;;;;;;5054986;28;1076;-73
2021/06/05 12:22:16;;;;;;;;;;;20.80;63.80;;;;;;5054584;28;1288;-72
2021/06/05 12:24:43;;;;;;;;;;;20.80;63.70;;;;;;5038738;28;1372;-72
2021/06/05 12:27:08;;;;;;;;;;;20.80;63.80;;;;;;5056566;28;1137;-73
2021/06/05 12:29:35;;;;;;;;;;;20.80;63.80;;;;;;5053589;28;1902;-72
2021/06/05 12:32:11;;;;;;;;;;;20.80;63.60;;;;;;5054202;28;1290;-73
2021/06/05 12:34:37;;;;;;;;;;;20.90;63.90;;;;;;5055391;28;1150;-75
2021/06/05 12:37:07;;;;;;;;;;;20.90;63.90;;;;;;5051694;28;1554;-70
2021/06/05 12:39:42;;;;;;;;;;;20.90;63.10;;;;;;5054157;28;1150;-72
2021/06/05 12:42:07;;;;;;;;;;;20.90;61.80;;;;;;5054052;28;1272;-73
2021/06/05 12:44:33;;;;;;;;;;;20.90;62.00;;;;;;5037314;28;1335;-72
2021/06/05 12:46:59;;;;;;;;;;;20.90;62.20;;;;;;5054108;28;1667;-72
2021/06/05 12:49:25;;;;;;;;;;;20.90;62.20;;;;;;5053496;28;1898;-71
2021/06/05 12:51:53;;;;;;;;;;;20.90;62.30;;;;;;5054150;28;1505;-72
2021/06/05 12:54:25;;;;;;;;;;;20.90;62.20;;;;;;5034198;28;1200;-71
2021/06/05 12:56:50;;;;;;;;;;;20.90;62.20;;;;;;5054159;28;1734;-70
2021/06/05 12:59:28;;;;;;;;;;;20.90;61.90;;;;;;5037295;28;1438;-72
2021/06/05 13:01:54;;;;;;;;;;;20.90;61.90;;;;;;5051148;28;1390;-73
2021/06/05 13:04:37;;;;;;;;;;;20.90;62.00;;;;;;5053697;28;1466;-73
2021/06/05 13:07:06;;;;;;;;;;;20.90;62.20;;;;;;5054832;28;1095;-73
2021/06/05 13:09:36;;;;;;;;;;;20.90;62.00;;;;;;5037098;28;1910;-73
2021/06/05 13:12:02;;;;;;;;;;;20.90;61.50;;;;;;5053783;28;1471;-72
2021/06/05 13:14:29;;;;;;;;;;;20.90;61.10;;;;;;5049192;28;1602;-74
2021/06/05 13:17:11;;;;;;;;;;;20.90;61.60;;;;;;5044839;28;1206;-74
2021/06/05 13:19:37;;;;;;;;;;;20.90;63.00;;;;;;5054083;28;1476;-73
2021/06/05 13:22:19;;;;;;;;;;;20.80;63.20;;;;;;5053701;28;1556;-73
2021/06/05 13:25:03;;;;;;;;;;;20.80;63.40;;;;;;5053458;28;1653;-73
2021/06/05 13:27:29;;;;;;;;;;;20.80;62.90;;;;;;5054877;28;1431;-74
2021/06/05 13:29:54;;;;;;;;;;;20.80;62.90;;;;;;5054643;28;1894;-74
2021/06/05 13:32:20;;;;;;;;;;;20.80;61.50;;;;;;5036690;28;1422;-73
2021/06/05 13:34:45;;;;;;;;;;;20.90;61.00;;;;;;5053022;28;1296;-74
2021/06/05 13:37:16;;;;;;;;;;;20.90;61.20;;;;;;5054575;28;1652;-73
2021/06/05 13:39:42;;;;;;;;;;;20.90;60.70;;;;;;5054583;28;1469;-74
2021/06/05 13:42:07;;;;;;;;;;;20.90;59.60;;;;;;5036644;28;1269;-73
2021/06/05 13:44:33;;;;;;;;;;;20.90;58.20;;;;;;5054270;28;1658;-73
2021/06/05 13:46:58;;;;;;;;;;;21.00;58.50;;;;;;5053364;28;972;-73
2021/06/05 13:49:23;;;;;;;;;;;21.00;58.90;;;;;;5054542;28;1898;-74
2021/06/05 13:51:49;;;;;;;;;;;21.00;59.20;;;;;;5052894;28;1281;-75
2021/06/05 13:54:15;;;;;;;;;;;21.00;58.60;;;;;;5053451;28;1551;-73
2021/06/05 13:56:42;;;;;;;;;;;21.00;59.00;;;;;;5053179;28;1183;-74
2021/06/05 13:59:07;;;;;;;;;;;21.00;59.60;;;;;;5053128;28;1401;-76
2021/06/05 14:01:33;;;;;;;;;;;21.00;59.90;;;;;;5052613;28;1389;-74
2021/06/05 14:03:59;;;;;;;;;;;21.00;59.60;;;;;;5035531;28;1294;-75
2021/06/05 14:06:24;;;;;;;;;;;21.00;59.80;;;;;;5052517;28;1083;-74
2021/06/05 14:08:50;;;;;;;;;;;21.00;59.60;;;;;;5035954;28;1902;-74
2021/06/05 14:11:17;;;;;;;;;;;20.90;59.30;;;;;;5052518;28;1616;-75
2021/06/05 14:13:46;;;;;;;;;;;20.90;59.00;;;;;;5052554;28;1205;-76
2021/06/05 14:16:11;;;;;;;;;;;20.90;59.10;;;;;;5052511;28;1209;-76
2021/06/05 14:18:37;;;;;;;;;;;20.90;59.60;;;;;;5053570;28;1190;-75
2021/06/05 14:21:04;;;;;;;;;;;20.90;59.20;;;;;;5052060;28;1162;-76
2021/06/05 14:23:29;;;;;;;;;;;20.90;58.30;;;;;;5052310;28;1271;-76
2021/06/05 14:25:55;;;;;;;;;;;21.00;57.90;;;;;;5052385;28;1163;-75
2021/06/05 14:28:21;;;;;;;;;;;20.90;60.00;;;;;;5053512;28;1906;-75
2021/06/05 14:30:48;;;;;;;;;;;20.90;60.60;;;;;;5052196;28;1123;-75
2021/06/05 14:33:13;;;;;;;;;;;20.90;61.20;;;;;;5053023;28;1295;-75
2021/06/05 14:35:39;;;;;;;;;;;20.90;61.20;;;;;;5051932;28;1079;-75